Yakutsk Airport
UEEE : now visible

Airfield :











YOU CAN JOIN US ON...

 
LOGIN :

Register | Disclaimer

   EN    FR    IT 

 









Legend :    VFR   Marginal VFR   IFR   Intensive IFR   Very Intensive IFR
Visi :
Ceiling :
>= 8 km
>= 3000ft
5 to 8 km
1000 to 3000 ft
1500m to 5 km
500 to 1000 ft
800 to 1500m
200 to 500 ft
< 800m
< 200 ft
Symbols :   Thunderstorms  Fog  Heavy snow  Heavy precipitations  Wind > 20 kt






- Airport Elevation : 325 ft
- IATA code : YKS


UEEE - Yakutsk

CURRENT METAR :
  • 231730Z 00000MPS 9999 SCT020 M29/M32 Q1014 R23L/450147 NOSIG RMK QFE752

EXPIRED METARs :
  • 231700Z 00000MPS 9999 -SN SCT020 M29/M32 Q1014 R23L/450147 NOSIG RMK QFE752
  • 231630Z 30001MPS 9999 -SN SCT020 M29/M32 Q1014 R23L/450147 NOSIG RMK QFE752
  • 231600Z 25001MPS 9999 -SN SCT020 M30/M33 Q1014 R23L/450147 NOSIG RMK QFE751
  • 231530Z 21001MPS 9999 -SN SCT020 M29/M32 Q1013 R23L/450147 NOSIG RMK QFE751
  • 231500Z 00000MPS 9999 -SN SCT020 M29/M32 Q1014 R23L/450147 NOSIG RMK QFE751

TAF TAF UEEE
Valid from the 23 at 18:00 until the 25 at 00:00 UTC


231700Z 2318/2424 VRB01MPS 9999 -SN SCT020 BKN070
TEMPO 2318/2403 3200 -SN BR



MET'MAP, your aeronautical weather chart ! - Copyright ORBIFLY December 2007 - Disclaimer

ORBIFLY MET'MAP TEAM :

Programming & Development : Alexandra Zaïnal
Concept & original design : Baudouin d'Aumeries
Assistance for programming : Marc-Olivier Méhu
Technical & hardware support : Manuel Goepfert

Contact : metmap@orbifly.com




SOURCES & CREDITS :

   NOAA       Earth
Advisory